Time;durP1;ratioP1;P1;durP2;ratioP2;P2;SDS_P1;SDS_P2;PMS_P1;PMS_P2;Temp;Humidity;BMP_temperature;BMP_pressure;BME280_temperature;BME280_humidity;BME280_pressure;Samples;Min_cycle;Max_cycle;Signal;HPM_P1;HPM_P2
2022/02/07 00:00:07;;;;;;;;;;;;;;;20.99;41.96;101483.56;7286088;19;151853;-51
2022/02/07 00:05:05;;;;;;;;;;;;;;;21.03;41.73;101506.31;7280793;19;153798;-50
2022/02/07 00:07:33;;;;;;;;;;;;;;;21.05;41.43;101516.09;7285634;19;151907;-50
2022/02/07 00:10:00;;;;;;;;;;;;;;;21.06;41.91;101531.00;7283770;19;152846;-51
2022/02/07 00:12:28;;;;;;;;;;;;;;;21.06;41.92;101531.84;7292519;19;154218;-50
2022/02/07 00:14:55;;;;;;;;;;;;;;;21.06;41.68;101537.44;7283280;19;153927;-50
2022/02/07 00:17:23;;;;;;;;;;;;;;;21.08;41.59;101537.97;7284409;19;153349;-51
2022/02/07 00:19:50;;;;;;;;;;;;;;;21.09;41.92;101558.47;7285805;19;151576;-50
2022/02/07 00:22:17;;;;;;;;;;;;;;;21.10;41.50;101557.34;7286156;19;152836;-50
2022/02/07 00:24:44;;;;;;;;;;;;;;;21.09;41.52;101567.75;7280228;19;153482;-50
2022/02/07 00:27:12;;;;;;;;;;;;;;;21.09;41.75;101570.56;7285618;19;151885;-50
2022/02/07 00:29:39;;;;;;;;;;;;;;;21.09;41.71;101567.75;7281201;19;153470;-50
2022/02/07 00:32:07;;;;;;;;;;;;;;;21.09;41.58;101566.91;7283810;19;154487;-50
2022/02/07 00:34:34;;;;;;;;;;;;;;;21.09;41.04;101567.75;7292964;19;152460;-51
2022/02/07 00:37:02;;;;;;;;;;;;;;;21.08;41.33;101565.22;7283870;19;154586;-50
2022/02/07 00:39:37;;;;;;;;;;;;;;;21.07;41.23;101564.41;7285589;19;152213;-50
2022/02/07 00:42:06;;;;;;;;;;;;;;;21.05;40.82;101566.69;7285058;19;153929;-50
2022/02/07 00:44:35;;;;;;;;;;;;;;;21.05;41.13;101577.06;7281930;19;154532;-51
2022/02/07 00:47:08;;;;;;;;;;;;;;;21.03;40.91;101580.16;7285502;19;151677;-50
2022/02/07 00:49:35;;;;;;;;;;;;;;;21.02;40.69;101580.50;7283812;19;152614;-50
2022/02/07 00:52:03;;;;;;;;;;;;;;;21.01;40.76;101584.44;7282605;19;153959;-50
2022/02/07 00:54:30;;;;;;;;;;;;;;;20.99;40.46;101590.31;7285109;19;152075;-51
2022/02/07 00:56:57;;;;;;;;;;;;;;;20.98;40.55;101596.25;7291015;19;153321;-50
2022/02/07 00:59:24;;;;;;;;;;;;;;;20.96;40.53;101612.56;7285649;19;152033;-50
2022/02/07 01:01:51;;;;;;;;;;;;;;;20.94;40.89;101618.47;7283695;19;153557;-50
2022/02/07 01:04:19;;;;;;;;;;;;;;;20.92;40.94;101631.16;7280944;19;154285;-50
2022/02/07 01:06:46;;;;;;;;;;;;;;;20.90;40.69;101637.03;7282363;19;152878;-50
2022/02/07 01:14:33;;;;;;;;;;;;;;;20.83;40.59;101665.50;7281793;19;155012;-50
2022/02/07 01:56:59;;;;;;;;;;;;;;;20.46;41.32;101779.44;7282987;19;153460;-50
2022/02/07 01:59:28;;;;;;;;;;;;;;;20.43;41.80;101789.28;7281085;19;155794;-50
2022/02/07 02:01:55;;;;;;;;;;;;;;;20.41;41.52;101789.56;7289755;19;151830;-50
2022/02/07 02:04:22;;;;;;;;;;;;;;;20.40;41.73;101792.66;7282216;19;154238;-50
2022/02/07 02:06:49;;;;;;;;;;;;;;;20.37;41.52;101808.13;7282799;19;151869;-50
2022/02/07 02:09:17;;;;;;;;;;;;;;;20.34;41.58;101813.47;7281879;19;153740;-50
2022/02/07 02:11:45;;;;;;;;;;;;;;;20.32;41.47;101821.31;7278998;19;154306;-50
2022/02/07 02:14:25;;;;;;;;;;;;;;;20.29;41.81;101831.13;7278440;19;151842;-50
2022/02/07 02:17:10;;;;;;;;;;;;;;;20.26;41.46;101823.25;7283050;19;152846;-50
2022/02/07 02:47:22;;;;;;;;;;;;;;;19.98;41.83;101892.09;7288046;19;154058;-50
2022/02/07 02:50:03;;;;;;;;;;;;;;;19.96;41.86;101887.84;7279605;19;153195;-50
2022/02/07 02:52:30;;;;;;;;;;;;;;;19.93;41.46;101894.03;7276818;19;153423;-50
2022/02/07 02:54:57;;;;;;;;;;;;;;;19.90;41.75;101895.44;7288303;19;151561;-50
2022/02/07 02:57:24;;;;;;;;;;;;;;;19.87;41.58;101904.41;7286538;19;153532;-50
2022/02/07 02:59:51;;;;;;;;;;;;;;;19.86;41.86;101907.50;7285011;19;154155;-50
2022/02/07 03:02:18;;;;;;;;;;;;;;;19.83;41.93;101908.91;7287302;19;152991;-50
2022/02/07 03:04:45;;;;;;;;;;;;;;;19.82;41.58;101918.44;7287969;19;152919;-50
2022/02/07 03:07:12;;;;;;;;;;;;;;;19.80;41.77;101920.69;7286955;19;153862;-50
2022/02/07 03:09:47;;;;;;;;;;;;;;;19.77;41.95;101921.22;7292459;19;152058;-50
2022/02/07 03:12:17;;;;;;;;;;;;;;;19.77;41.95;101914.78;7284433;19;154049;-50
2022/02/07 03:14:46;;;;;;;;;;;;;;;19.74;42.15;101934.97;7285808;19;152033;-50
2022/02/07 03:17:13;;;;;;;;;;;;;;;19.72;41.72;101937.19;7286463;19;154197;-50
2022/02/07 03:19:40;;;;;;;;;;;;;;;19.69;42.06;101941.41;7285770;19;154135;-50
2022/02/07 03:22:07;;;;;;;;;;;;;;;19.69;41.62;101955.44;7286642;19;151888;-50
2022/02/07 03:24:35;;;;;;;;;;;;;;;19.66;41.82;101961.63;7287499;19;152850;-50
2022/02/07 03:27:02;;;;;;;;;;;;;;;19.65;41.95;101973.09;7283621;19;153812;-49
2022/02/07 03:29:30;;;;;;;;;;;;;;;19.64;42.04;101974.22;7284994;19;151855;-50
2022/02/07 03:31:57;;;;;;;;;;;;;;;19.60;42.42;101973.94;7293376;19;153064;-51
2022/02/07 03:34:24;;;;;;;;;;;;;;;19.59;42.14;101980.66;7285781;19;152230;-51
2022/02/07 03:36:51;;;;;;;;;;;;;;;19.57;42.45;101982.91;7286637;19;152151;-50
2022/02/07 03:39:18;;;;;;;;;;;;;;;19.54;42.29;102000.25;7285796;19;153491;-50
2022/02/07 03:41:45;;;;;;;;;;;;;;;19.52;42.55;102008.13;7286523;19;152940;-50
2022/02/07 03:44:12;;;;;;;;;;;;;;;19.51;42.34;102000.81;7286739;19;153356;-50
2022/02/07 03:46:39;;;;;;;;;;;;;;;19.48;42.42;102009.78;7282517;19;153940;-50
2022/02/07 03:49:06;;;;;;;;;;;;;;;19.47;42.89;102011.75;7285703;19;153694;-50
2022/02/07 03:51:33;;;;;;;;;;;;;;;19.45;42.77;101999.94;7287745;19;153138;-50
2022/02/07 03:54:00;;;;;;;;;;;;;;;19.44;42.50;102011.47;7293298;19;151941;-50
2022/02/07 03:56:27;;;;;;;;;;;;;;;19.42;42.55;102022.06;7287085;19;153411;-50
2022/02/07 03:58:54;;;;;;;;;;;;;;;19.41;42.90;102028.78;7283348;19;152340;-50
2022/02/07 04:01:24;;;;;;;;;;;;;;;19.38;42.62;102037.72;7286016;19;152109;-50
2022/02/07 04:03:52;;;;;;;;;;;;;;;19.37;43.12;102042.50;7286499;19;152736;-50
2022/02/07 04:06:21;;;;;;;;;;;;;;;19.36;43.09;102053.97;7282425;19;154165;-50
2022/02/07 04:08:52;;;;;;;;;;;;;;;19.34;42.85;102048.66;7286894;19;151506;-50
2022/02/07 04:11:25;;;;;;;;;;;;;;;19.32;43.10;102048.06;7283053;19;153054;-50
2022/02/07 04:13:55;;;;;;;;;;;;;;;19.31;43.38;102051.13;7288587;19;153466;-50
2022/02/07 04:16:22;;;;;;;;;;;;;;;19.29;43.25;102048.63;7286223;19;152858;-50
2022/02/07 04:21:22;;;;;;;;;;;;;;;19.26;43.29;102048.34;7286338;19;152094;-50
2022/02/07 04:23:50;;;;;;;;;;;;;;;19.23;43.16;102055.31;7283691;19;152899;-50
2022/02/07 04:26:17;;;;;;;;;;;;;;;19.22;43.24;102055.56;7282627;19;154111;-50
2022/02/07 04:28:45;;;;;;;;;;;;;;;19.22;43.63;102055.56;7283368;19;151614;-50
2022/02/07 04:31:12;;;;;;;;;;;;;;;19.19;43.24;102062.59;7283434;19;152893;-50
2022/02/07 04:33:39;;;;;;;;;;;;;;;19.17;43.26;102076.00;7284776;19;153931;-50
2022/02/07 04:36:07;;;;;;;;;;;;;;;19.16;43.68;102087.50;7292265;19;152182;-49
2022/02/07 04:38:34;;;;;;;;;;;;;;;19.14;43.38;102096.16;7284928;19;153702;-50
2022/02/07 04:41:01;;;;;;;;;;;;;;;19.13;43.61;102104.84;7281753;19;152118;-50
2022/02/07 04:43:28;;;;;;;;;;;;;;;19.10;43.59;102106.22;7285462;19;153829;-50
2022/02/07 05:03:30;;;;;;;;;;;;;;;18.96;43.47;102117.06;7283210;19;153875;-51
2022/02/07 05:15:58;;;;;;;;;;;;;;;18.91;44.00;102139.44;7283691;19;151542;-49
2022/02/07 05:18:27;;;;;;;;;;;;;;;18.92;44.28;102121.53;7283465;19;152686;-49
2022/02/07 05:20:55;;;;;;;;;;;;;;;18.94;43.98;102122.06;7289614;19;153948;-49
2022/02/07 05:23:22;;;;;;;;;;;;;;;18.96;44.42;102125.47;7284118;19;153842;-49
2022/02/07 05:25:49;;;;;;;;;;;;;;;19.00;44.59;102129.41;7282678;19;154143;-49
2022/02/07 05:28:16;;;;;;;;;;;;;;;19.04;44.63;102133.34;7283734;19;152042;-49
2022/02/07 05:30:43;;;;;;;;;;;;;;;19.07;44.62;102135.66;7280576;19;153397;-49
2022/02/07 05:33:10;;;;;;;;;;;;;;;19.12;45.03;102134.84;7283217;19;154247;-49
2022/02/07 05:35:37;;;;;;;;;;;;;;;19.18;44.97;102136.53;7283367;19;151911;-49
2022/02/07 05:38:07;;;;;;;;;;;;;;;19.23;44.85;102133.75;7281517;19;152501;-49
2022/02/07 05:43:03;;;;;;;;;;;;;;;19.35;44.89;102142.78;7291232;19;152574;-50
2022/02/07 05:45:30;;;;;;;;;;;;;;;19.41;44.51;102127.72;7280296;19;154144;-50
2022/02/07 05:47:57;;;;;;;;;;;;;;;19.46;44.69;102124.13;7285013;19;151761;-50
2022/02/07 05:50:24;;;;;;;;;;;;;;;19.52;44.67;102120.22;7280930;19;153235;-50
2022/02/07 05:52:51;;;;;;;;;;;;;;;19.59;44.36;102132.03;7280288;19;153396;-50
2022/02/07 05:55:18;;;;;;;;;;;;;;;19.65;44.10;102144.97;7282489;19;152101;-51
2022/02/07 05:57:45;;;;;;;;;;;;;;;19.71;44.35;102143.88;7279290;19;153028;-50
2022/02/07 06:00:12;;;;;;;;;;;;;;;19.77;44.42;102137.16;7279842;19;153984;-51
2022/02/07 06:02:39;;;;;;;;;;;;;;;19.82;44.33;102139.13;7291619;19;152247;-50
2022/02/07 06:05:07;;;;;;;;;;;;;;;19.89;43.95;102142.53;7281638;19;154574;-50
2022/02/07 06:07:34;;;;;;;;;;;;;;;19.94;43.55;102157.41;7282390;19;153262;-50
2022/02/07 06:10:01;;;;;;;;;;;;;;;20.00;43.57;102161.09;7281047;19;153944;-51
2022/02/07 06:12:32;;;;;;;;;;;;;;;20.07;43.74;102177.66;7280210;19;153567;-50
2022/02/07 06:14:59;;;;;;;;;;;;;;;20.11;43.16;102171.22;7279630;19;151909;-50
2022/02/07 06:17:26;;;;;;;;;;;;;;;20.18;43.36;102173.75;7281211;19;152761;-50
2022/02/07 06:19:54;;;;;;;;;;;;;;;20.23;43.87;102176.59;7281093;19;154201;-50
2022/02/07 06:22:21;;;;;;;;;;;;;;;20.26;43.63;102171.25;7281958;19;151678;-50
2022/02/07 06:24:48;;;;;;;;;;;;;;;20.32;43.64;102169.34;7288928;19;153349;-50
2022/02/07 06:27:15;;;;;;;;;;;;;;;20.36;43.71;102181.69;7281201;19;151848;-49
2022/02/07 06:29:42;;;;;;;;;;;;;;;20.40;43.60;102192.09;7286558;19;152668;-50
2022/02/07 06:32:09;;;;;;;;;;;;;;;20.46;43.05;102197.72;7284872;19;154133;-50
2022/02/07 06:34:36;;;;;;;;;;;;;;;20.50;43.17;102202.50;7286807;19;152113;-50
2022/02/07 06:37:05;;;;;;;;;;;;;;;20.54;42.83;102203.63;7288610;19;152838;-50
2022/02/07 06:39:32;;;;;;;;;;;;;;;20.59;43.06;102214.03;7288125;19;153457;-50
2022/02/07 06:41:59;;;;;;;;;;;;;;;20.63;43.17;102210.38;7288168;19;151453;-51
2022/02/07 06:44:27;;;;;;;;;;;;;;;20.68;42.54;102221.63;7285921;19;152618;-51
2022/02/07 06:46:54;;;;;;;;;;;;;;;20.71;42.65;102231.50;7294176;19;152369;-50
2022/02/07 06:49:23;;;;;;;;;;;;;;;20.76;42.82;102249.16;7287807;19;153208;-50
2022/02/07 06:51:50;;;;;;;;;;;;;;;20.79;42.81;102259.03;7284919;19;153480;-50
2022/02/07 06:54:17;;;;;;;;;;;;;;;20.83;42.23;102265.75;7286483;19;152358;-50
2022/02/07 06:56:45;;;;;;;;;;;;;;;20.88;42.51;102277.00;7286326;19;152670;-50
2022/02/07 06:59:16;;;;;;;;;;;;;;;20.91;42.42;102289.66;7285805;19;152693;-51
2022/02/07 07:01:45;;;;;;;;;;;;;;;20.95;42.39;102291.63;7286249;19;151791;-50
2022/02/07 07:04:12;;;;;;;;;;;;;;;21.00;42.42;102287.97;7288320;19;153370;-50
2022/02/07 07:06:40;;;;;;;;;;;;;;;21.03;42.16;102288.25;7285574;19;154468;-50
2022/02/07 07:09:12;;;;;;;;;;;;;;;21.07;42.34;102285.75;7293399;19;152414;-50
2022/02/07 07:11:41;;;;;;;;;;;;;;;21.12;42.20;102288.56;7284717;19;154461;-50
2022/02/07 07:14:16;;;;;;;;;;;;;;;21.15;41.92;102290.84;7281363;19;152409;-50
2022/02/07 07:19:14;;;;;;;;;;;;;;;21.29;41.58;102311.66;7286929;19;154603;-50
2022/02/07 07:21:41;;;;;;;;;;;;;;;21.32;41.83;102324.28;7288047;19;151836;-50
2022/02/07 07:24:08;;;;;;;;;;;;;;;21.34;41.17;102334.16;7287298;19;153587;-51
2022/02/07 07:26:36;;;;;;;;;;;;;;;21.37;40.91;102335.53;7286771;19;154158;-50
2022/02/07 07:29:09;;;;;;;;;;;;;;;21.41;40.93;102333.84;7285215;19;151752;-50
2022/02/07 07:31:42;;;;;;;;;;;;;;;21.42;40.55;102333.59;7292891;19;154047;-50
2022/02/07 07:34:09;;;;;;;;;;;;;;;21.45;40.66;102341.44;7285288;19;152586;-61
2022/02/07 07:36:41;;;;;;;;;;;;;;;21.30;37.73;102347.91;7284899;19;152387;-51
2022/02/07 07:39:08;;;;;;;;;;;;;;;21.33;37.64;102351.28;7284704;19;152060;-51
2022/02/07 07:41:35;;;;;;;;;;;;;;;21.33;37.73;102362.53;7286608;19;151933;-52
2022/02/07 07:44:02;;;;;;;;;;;;;;;21.32;37.29;102370.13;7285754;19;153215;-57
2022/02/07 07:46:30;;;;;;;;;;;;;;;21.30;37.07;102364.78;7286852;19;153328;-56
2022/02/07 07:49:03;;;;;;;;;;;;;;;21.29;37.28;102371.53;7286142;19;152251;-51
2022/02/07 08:04:04;;;;;;;;;;;;;;;21.16;36.71;102408.63;7286096;19;153650;-51
2022/02/07 08:06:37;;;;;;;;;;;;;;;21.13;36.85;102406.34;7285458;19;153870;-51
2022/02/07 08:11:33;;;;;;;;;;;;;;;21.09;37.11;102415.56;7285066;19;153520;-52
2022/02/07 08:14:01;;;;;;;;;;;;;;;21.06;36.95;102431.03;7289315;19;152724;-52
2022/02/07 08:16:28;;;;;;;;;;;;;;;21.04;36.86;102432.41;7284587;19;152484;-52
2022/02/07 08:19:01;;;;;;;;;;;;;;;20.97;36.80;102434.66;7285134;19;153623;-52
2022/02/07 08:21:28;;;;;;;;;;;;;;;20.96;36.88;102442.22;7285538;19;151497;-51
2022/02/07 08:23:55;;;;;;;;;;;;;;;20.97;36.81;102452.38;7283820;19;152816;-51
2022/02/07 08:26:22;;;;;;;;;;;;;;;20.96;37.08;102455.44;7284862;19;153920;-51
2022/02/07 08:28:50;;;;;;;;;;;;;;;20.95;37.44;102471.44;7283850;19;151851;-53
2022/02/07 08:31:17;;;;;;;;;;;;;;;20.96;37.62;102461.91;7283080;19;152822;-52
2022/02/07 08:33:46;;;;;;;;;;;;;;;20.90;37.01;102479.84;7281046;19;153099;-52
2022/02/07 08:36:16;;;;;;;;;;;;;;;20.88;37.37;102482.09;7291241;19;151633;-52
2022/02/07 08:38:43;;;;;;;;;;;;;;;20.84;37.23;102492.19;7284780;19;153378;-52
2022/02/07 08:41:10;;;;;;;;;;;;;;;20.79;37.16;102497.78;7283654;19;152689;-52
2022/02/07 08:43:38;;;;;;;;;;;;;;;20.75;36.66;102500.31;7284885;19;153084;-52
2022/02/07 08:46:05;;;;;;;;;;;;;;;20.71;37.08;102499.16;7274083;19;153866;-52
2022/02/07 08:48:33;;;;;;;;;;;;;;;20.66;36.64;102495.47;7280030;19;155505;-52
2022/02/07 08:51:00;;;;;;;;;;;;;;;20.63;36.84;102498.81;7279598;19;153056;-52
2022/02/07 08:53:33;;;;;;;;;;;;;;;20.60;36.99;102505.81;7283290;19;154210;-52
2022/02/07 08:56:02;;;;;;;;;;;;;;;20.55;36.89;102493.69;7283948;19;152245;-52
2022/02/07 08:58:32;;;;;;;;;;;;;;;20.53;37.07;102485.56;7290053;19;153931;-52
2022/02/07 09:11:06;;;;;;;;;;;;;;;20.35;37.11;102486.00;7281902;19;152731;-52
2022/02/07 09:13:36;;;;;;;;;;;;;;;20.32;37.10;102483.72;7281580;19;153487;-52
2022/02/07 09:16:17;;;;;;;;;;;;;;;20.29;36.88;102487.88;7282275;19;152110;-51
2022/02/07 09:18:46;;;;;;;;;;;;;;;20.26;37.12;102491.22;7283683;19;153757;-52
2022/02/07 09:21:14;;;;;;;;;;;;;;;20.24;37.12;102498.22;7290014;19;154451;-52
2022/02/07 09:23:41;;;;;;;;;;;;;;;20.22;37.45;102497.63;7283268;19;153461;-52
2022/02/07 09:26:08;;;;;;;;;;;;;;;20.19;36.97;102507.44;7280153;19;154141;-52
2022/02/07 09:28:35;;;;;;;;;;;;;;;20.16;37.36;102513.59;7283011;19;152181;-52
2022/02/07 09:31:03;;;;;;;;;;;;;;;20.13;37.41;102508.50;7280849;19;153743;-51
2022/02/07 09:33:30;;;;;;;;;;;;;;;20.10;37.41;102511.00;7277227;19;154708;-52
2022/02/07 09:35:59;;;;;;;;;;;;;;;20.08;37.21;102494.44;7282755;19;151953;-51
2022/02/07 09:38:26;;;;;;;;;;;;;;;20.06;37.21;102481.81;7282488;19;153533;-52
2022/02/07 09:40:54;;;;;;;;;;;;;;;20.03;37.66;102496.38;7279726;19;154128;-52
2022/02/07 09:43:26;;;;;;;;;;;;;;;20.02;37.22;102494.69;7290786;19;152128;-52
2022/02/07 09:45:54;;;;;;;;;;;;;;;19.98;37.55;102495.22;7280022;19;153495;-52
2022/02/07 09:48:21;;;;;;;;;;;;;;;19.97;37.31;102506.69;7277154;19;152177;-52
2022/02/07 09:50:49;;;;;;;;;;;;;;;19.94;37.37;102501.63;7281038;19;153630;-52
2022/02/07 09:53:17;;;;;;;;;;;;;;;19.91;37.67;102507.75;7278799;19;153119;-52
2022/02/07 09:55:45;;;;;;;;;;;;;;;19.90;37.66;102504.09;7282388;19;152465;-52
2022/02/07 09:58:15;;;;;;;;;;;;;;;19.86;37.31;102502.94;7285387;19;153389;-52
2022/02/07 10:00:42;;;;;;;;;;;;;;;19.84;37.18;102508.00;7283720;19;153872;-51
2022/02/07 10:08:20;;;;;;;;;;;;;;;19.77;37.43;102495.28;7284013;19;152293;-52
2022/02/07 10:10:54;;;;;;;;;;;;;;;19.73;37.55;102506.19;7284511;19;153024;-51
2022/02/07 10:13:39;;;;;;;;;;;;;;;19.72;37.64;102509.25;7280761;19;153831;-51
2022/02/07 10:18:45;;;;;;;;;;;;;;;19.70;37.77;102508.69;7284578;19;152311;-55
2022/02/07 10:41:39;;;;;;;;;;;;;;;19.74;38.30;102516.28;7281162;19;154422;-52
2022/02/07 10:44:18;;;;;;;;;;;;;;;19.80;37.92;102511.59;7284022;19;152244;-52
2022/02/07 10:46:49;;;;;;;;;;;;;;;19.87;38.05;102515.00;7283255;19;153767;-52
2022/02/07 10:49:21;;;;;;;;;;;;;;;19.91;37.91;102511.41;7285634;19;154280;-52
2022/02/07 10:51:57;;;;;;;;;;;;;;;19.97;38.21;102520.72;7282750;19;153394;-52
2022/02/07 10:54:25;;;;;;;;;;;;;;;20.02;38.05;102522.72;7282650;19;154628;-51
2022/02/07 10:56:53;;;;;;;;;;;;;;;20.07;37.93;102522.78;7283047;19;151825;-52
2022/02/07 10:59:21;;;;;;;;;;;;;;;20.11;38.08;102523.94;7282839;19;153531;-52
2022/02/07 11:04:22;;;;;;;;;;;;;;;20.20;37.83;102534.41;7280908;19;152079;-52
2022/02/07 11:06:56;;;;;;;;;;;;;;;20.26;37.50;102529.69;7282597;19;153670;-52
2022/02/07 11:13:10;;;;;;;;;;;;;;;20.38;37.71;102536.84;7289030;19;151599;-52
2022/02/07 11:15:47;;;;;;;;;;;;;;;20.45;37.41;102539.41;7285071;19;154007;-52
2022/02/07 11:21:07;;;;;;;;;;;;;;;20.55;37.67;102544.25;7289043;19;153341;-52
2022/02/07 11:26:26;;;;;;;;;;;;;;;20.65;37.55;102550.78;7288880;19;152152;-52
2022/02/07 11:28:54;;;;;;;;;;;;;;;20.70;37.52;102552.78;7289186;19;153955;-52
2022/02/07 11:31:24;;;;;;;;;;;;;;;20.75;37.20;102550.00;7287603;19;154208;-52
2022/02/07 11:33:54;;;;;;;;;;;;;;;20.74;36.63;102537.09;7284046;19;151885;-52
2022/02/07 11:36:26;;;;;;;;;;;;;;;20.76;36.51;102543.25;7293343;19;152741;-52
2022/02/07 11:38:56;;;;;;;;;;;;;;;20.77;36.38;102544.97;7286296;19;151906;-52
2022/02/07 11:41:23;;;;;;;;;;;;;;;20.78;36.35;102536.28;7288431;19;154372;-52
2022/02/07 11:43:51;;;;;;;;;;;;;;;20.80;36.38;102539.63;7286779;19;153373;-52
2022/02/07 11:46:21;;;;;;;;;;;;;;;20.82;35.97;102539.38;7288315;19;151874;-52
2022/02/07 11:48:51;;;;;;;;;;;;;;;20.83;36.41;102535.44;7288088;19;153214;-52
2022/02/07 11:51:19;;;;;;;;;;;;;;;20.83;36.28;102530.69;7285129;19;153831;-52
2022/02/07 11:53:51;;;;;;;;;;;;;;;20.85;36.25;102528.44;7287275;19;152307;-51
2022/02/07 11:56:22;;;;;;;;;;;;;;;20.86;36.10;102532.94;7288701;19;152842;-52
2022/02/07 11:58:55;;;;;;;;;;;;;;;20.86;36.20;102543.31;7295010;19;152284;-52
2022/02/07 12:01:25;;;;;;;;;;;;;;;20.88;35.91;102540.25;7289341;19;153811;-52
2022/02/07 12:03:54;;;;;;;;;;;;;;;20.88;36.13;102540.25;7288307;19;153445;-52
2022/02/07 12:06:24;;;;;;;;;;;;;;;20.87;35.93;102542.22;7287095;19;152673;-52
2022/02/07 12:08:56;;;;;;;;;;;;;;;20.86;35.90;102540.50;7287976;19;152823;-52
2022/02/07 12:11:29;;;;;;;;;;;;;;;20.87;36.01;102536.59;7286095;19;153474;-52
2022/02/07 12:13:58;;;;;;;;;;;;;;;20.85;35.51;102525.63;7285376;19;151712;-52
2022/02/07 12:16:26;;;;;;;;;;;;;;;20.85;35.74;102513.53;7288627;19;152510;-52
2022/02/07 12:18:57;;;;;;;;;;;;;;;20.84;35.45;102512.72;7288387;19;153248;-52
2022/02/07 12:21:26;;;;;;;;;;;;;;;20.82;35.55;102528.97;7296611;19;151755;-52
2022/02/07 12:23:56;;;;;;;;;;;;;;;20.79;35.68;102523.91;7280703;19;154284;-52
2022/02/07 12:26:26;;;;;;;;;;;;;;;20.78;35.59;102530.66;7280364;19;152297;-52
2022/02/07 12:28:58;;;;;;;;;;;;;;;20.78;35.40;102532.59;7287026;19;153541;-52
2022/02/07 12:31:27;;;;;;;;;;;;;;;20.75;35.52;102545.25;7287910;19;154392;-52
2022/02/07 12:33:55;;;;;;;;;;;;;;;20.73;35.54;102530.63;7283615;19;151919;-52
2022/02/07 12:36:24;;;;;;;;;;;;;;;20.72;35.42;102530.88;7287633;19;153017;-52
2022/02/07 12:38:53;;;;;;;;;;;;;;;20.71;35.65;102529.22;7284876;19;153260;-52
2022/02/07 12:41:23;;;;;;;;;;;;;;;20.68;35.35;102527.78;7295023;19;151670;-52
2022/02/07 12:43:51;;;;;;;;;;;;;;;20.66;35.37;102527.22;7286551;19;152603;-52
2022/02/07 12:46:21;;;;;;;;;;;;;;;20.62;35.66;102528.88;7285461;19;152084;-52
2022/02/07 12:48:57;;;;;;;;;;;;;;;20.60;35.41;102524.63;7288206;19;152884;-51
2022/02/07 12:51:27;;;;;;;;;;;;;;;20.60;35.16;102522.66;7285650;19;153691;-52
2022/02/07 12:53:55;;;;;;;;;;;;;;;20.58;35.55;102533.31;7284989;19;152077;-52
2022/02/07 12:56:23;;;;;;;;;;;;;;;20.56;35.25;102529.94;7288149;19;151845;-52
2022/02/07 12:58:51;;;;;;;;;;;;;;;20.54;35.42;102517.28;7286416;19;153480;-52
2022/02/07 13:01:21;;;;;;;;;;;;;;;20.52;35.53;102520.38;7285737;19;151652;-52
2022/02/07 13:03:50;;;;;;;;;;;;;;;20.53;35.64;102524.03;7293503;19;153361;-52
2022/02/07 13:06:22;;;;;;;;;;;;;;;20.52;35.10;102513.91;7286541;19;151850;-52
2022/02/07 13:09:13;;;;;;;;;;;;;;;20.47;35.20;102519.47;7286390;19;153003;-52
2022/02/07 13:11:47;;;;;;;;;;;;;;;20.45;35.36;102516.09;7284677;19;153293;-52
2022/02/07 13:14:16;;;;;;;;;;;;;;;20.44;35.30;102503.19;7284259;19;151866;-52
2022/02/07 13:16:44;;;;;;;;;;;;;;;20.41;35.52;102505.41;7286328;19;153649;-52
2022/02/07 13:19:13;;;;;;;;;;;;;;;20.41;35.43;102515.78;7284048;19;153758;-52
2022/02/07 13:21:42;;;;;;;;;;;;;;;20.38;35.54;102499.50;7286438;19;152281;-52
2022/02/07 13:24:11;;;;;;;;;;;;;;;20.35;35.26;102508.47;7286173;19;152966;-52
2022/02/07 13:26:42;;;;;;;;;;;;;;;20.32;35.61;102506.16;7289368;19;153524;-51
2022/02/07 13:29:14;;;;;;;;;;;;;;;20.29;35.74;102506.69;7284266;19;153841;-52
2022/02/07 13:31:42;;;;;;;;;;;;;;;20.26;35.66;102510.03;7282332;19;152547;-51
2022/02/07 13:34:12;;;;;;;;;;;;;;;20.25;35.53;102495.16;7284467;19;151703;-52
2022/02/07 13:36:42;;;;;;;;;;;;;;;20.25;35.46;102505.53;7284032;19;153076;-52
2022/02/07 13:39:10;;;;;;;;;;;;;;;20.24;35.62;102493.47;7283487;19;153819;-52
2022/02/07 13:41:39;;;;;;;;;;;;;;;20.24;35.63;102492.63;7285870;19;152076;-51
2022/02/07 13:44:07;;;;;;;;;;;;;;;20.23;35.58;102497.38;7286807;19;154052;-52
2022/02/07 13:46:37;;;;;;;;;;;;;;;20.21;35.49;102495.97;7285714;19;153558;-52
2022/02/07 13:49:07;;;;;;;;;;;;;;;20.19;35.55;102484.16;7294310;19;151517;-52
2022/02/07 13:51:36;;;;;;;;;;;;;;;20.17;35.27;102487.22;7285151;19;153019;-52
2022/02/07 13:54:04;;;;;;;;;;;;;;;20.14;35.74;102490.56;7284583;19;151604;-52
2022/02/07 13:56:34;;;;;;;;;;;;;;;20.11;35.84;102493.91;7286985;19;152014;-51
2022/02/07 13:59:05;;;;;;;;;;;;;;;20.08;35.92;102480.41;7285208;19;153694;-52
2022/02/07 14:01:34;;;;;;;;;;;;;;;20.04;35.50;102484.00;7286855;19;151935;-52
2022/02/07 14:07:20;;;;;;;;;;;;;;;19.98;35.77;102481.19;7284357;19;152001;-51
2022/02/07 14:09:48;;;;;;;;;;;;;;;19.93;35.72;102486.75;7284797;19;151999;-52
2022/02/07 14:12:15;;;;;;;;;;;;;;;19.91;35.34;102488.97;7292842;19;151882;-52
2022/02/07 14:14:42;;;;;;;;;;;;;;;19.87;35.44;102481.34;7283332;19;151724;-52
2022/02/07 14:17:11;;;;;;;;;;;;;;;19.83;35.76;102481.03;7284161;19;151803;-52
2022/02/07 14:19:45;;;;;;;;;;;;;;;19.82;35.85;102472.88;7284829;19;154205;-52
2022/02/07 14:22:13;;;;;;;;;;;;;;;19.80;35.62;102480.75;7285296;19;151695;-52
2022/02/07 14:24:40;;;;;;;;;;;;;;;19.77;35.96;102470.03;7286142;19;153353;-51
2022/02/07 14:27:15;;;;;;;;;;;;;;;19.75;36.03;102463.88;7284336;19;154123;-51
2022/02/07 14:29:43;;;;;;;;;;;;;;;19.73;35.94;102463.25;7283851;19;151949;-51
2022/02/07 14:32:20;;;;;;;;;;;;;;;19.69;36.15;102468.56;7285135;19;153126;-55
2022/02/07 14:34:47;;;;;;;;;;;;;;;19.66;36.17;102466.31;7289196;19;151744;-51
2022/02/07 14:37:16;;;;;;;;;;;;;;;19.64;36.24;102471.31;7285377;19;152812;-52
2022/02/07 14:39:43;;;;;;;;;;;;;;;19.62;35.97;102469.91;7281841;19;153381;-52
2022/02/07 14:42:10;;;;;;;;;;;;;;;19.56;36.34;102471.81;7284334;19;151694;-51
2022/02/07 14:44:46;;;;;;;;;;;;;;;19.54;36.44;102460.84;7285559;19;153920;-51
2022/02/07 14:47:27;;;;;;;;;;;;;;;19.52;36.13;102463.09;7283738;19;152283;-51
2022/02/07 14:53:13;;;;;;;;;;;;;;;19.48;36.35;102461.06;7291166;19;152706;-51
2022/02/07 14:55:41;;;;;;;;;;;;;;;19.46;36.79;102463.28;7296909;19;153322;-51
2022/02/07 14:58:10;;;;;;;;;;;;;;;19.44;36.71;102460.72;7289832;19;153499;-51
2022/02/07 15:00:38;;;;;;;;;;;;;;;19.42;36.59;102462.09;7288744;19;152873;-52
2022/02/07 15:03:07;;;;;;;;;;;;;;;19.40;36.94;102462.34;7289964;19;152120;-51
2022/02/07 15:05:35;;;;;;;;;;;;;;;19.38;36.89;102467.38;7290777;19;153003;-51
2022/02/07 15:08:03;;;;;;;;;;;;;;;19.36;36.83;102454.72;7287117;19;153250;-51
2022/02/07 15:10:33;;;;;;;;;;;;;;;19.33;36.85;102453.31;7290483;19;151859;-52
2022/02/07 15:13:00;;;;;;;;;;;;;;;19.30;37.22;102445.44;7276521;19;154093;-52
2022/02/07 15:15:27;;;;;;;;;;;;;;;19.29;37.23;102446.53;7280351;19;153689;-52
2022/02/07 15:17:57;;;;;;;;;;;;;;;19.27;37.50;102454.34;7293842;19;151550;-51
2022/02/07 15:20:24;;;;;;;;;;;;;;;19.25;37.41;102450.13;7286854;19;153869;-51
2022/02/07 15:22:52;;;;;;;;;;;;;;;19.23;37.46;102447.59;7286445;19;151841;-51
2022/02/07 15:25:29;;;;;;;;;;;;;;;19.22;37.24;102445.88;7286993;19;152575;-52
2022/02/07 15:27:58;;;;;;;;;;;;;;;19.20;37.73;102436.91;7284860;19;154073;-51
2022/02/07 15:30:40;;;;;;;;;;;;;;;19.18;37.33;102424.25;7286877;19;151949;-52
2022/02/07 15:33:11;;;;;;;;;;;;;;;19.16;37.70;102434.91;7285846;19;152701;-52
2022/02/07 15:35:39;;;;;;;;;;;;;;;19.14;37.64;102425.91;7280442;19;153299;-51
2022/02/07 15:38:07;;;;;;;;;;;;;;;19.11;37.75;102416.09;7286054;19;152349;-52